Time;durP1;ratioP1;P1;durP2;ratioP2;P2;SDS_P1;SDS_P2;PMS_P1;PMS_P2;Temp;Humidity;BMP_temperature;BMP_pressure;BME280_temperature;BME280_humidity;BME280_pressure;Samples;Min_cycle;Max_cycle;Signal;HPM_P1;HPM_P2
2023/06/24 00:02:08;;;;;;;10.38;6.93;;;21.50;67.20;;;;;;5074002;28;20067;-62
2023/06/24 00:04:34;;;;;;;10.23;6.43;;;21.50;67.30;;;;;;5073125;28;20439;-61
2023/06/24 00:07:00;;;;;;;10.32;7.00;;;21.50;67.40;;;;;;5071289;28;20059;-62
2023/06/24 00:09:32;;;;;;;10.15;6.63;;;21.40;67.30;;;;;;5072790;28;20025;-62
2023/06/24 00:11:59;;;;;;;10.93;6.82;;;21.40;67.90;;;;;;5070835;28;20054;-62
2023/06/24 00:14:26;;;;;;;9.95;6.47;;;21.40;67.20;;;;;;5072770;28;20021;-62
2023/06/24 00:16:53;;;;;;;9.45;6.78;;;21.40;67.30;;;;;;5072264;28;20495;-61
2023/06/24 00:19:28;;;;;;;10.88;7.25;;;21.40;67.30;;;;;;5071431;28;20017;-62
2023/06/24 00:21:54;;;;;;;8.52;6.35;;;21.40;67.30;;;;;;5073115;28;20120;-62
2023/06/24 00:24:25;;;;;;;9.00;5.95;;;21.40;67.40;;;;;;5072198;28;20432;-62
2023/06/24 00:26:52;;;;;;;9.55;6.07;;;21.40;67.50;;;;;;5073220;28;20036;-62
2023/06/24 00:29:18;;;;;;;10.82;5.90;;;21.30;67.60;;;;;;5061207;28;20384;-61
2023/06/24 00:31:44;;;;;;;10.10;6.28;;;21.30;67.60;;;;;;5073726;28;20115;-61
2023/06/24 00:34:10;;;;;;;9.38;6.22;;;21.30;67.60;;;;;;5054090;28;20028;-61
2023/06/24 00:36:36;;;;;;;9.60;6.32;;;21.30;67.70;;;;;;5071218;28;20028;-62
2023/06/24 00:39:03;;;;;;;8.30;5.88;;;21.30;67.90;;;;;;5073388;28;20032;-62
2023/06/24 00:41:33;;;;;;;10.52;6.28;;;21.30;67.90;;;;;;5071714;28;20029;-62
2023/06/24 00:44:00;;;;;;;8.95;6.28;;;21.30;68.00;;;;;;5054965;28;20028;-62
2023/06/24 00:46:27;;;;;;;10.52;6.50;;;21.30;68.00;;;;;;5071068;28;20097;-62
2023/06/24 00:48:57;;;;;;;9.00;5.97;;;21.30;68.10;;;;;;5055451;28;20047;-62
2023/06/24 00:51:26;;;;;;;9.70;6.32;;;21.30;68.20;;;;;;5049409;28;20039;-62
2023/06/24 00:53:53;;;;;;;10.23;6.60;;;21.30;68.20;;;;;;5037409;28;20021;-62
2023/06/24 00:56:22;;;;;;;10.52;6.65;;;21.30;68.30;;;;;;5069855;28;20025;-62
2023/06/24 00:58:48;;;;;;;9.50;6.43;;;21.30;68.40;;;;;;5056981;28;20040;-62
2023/06/24 01:01:15;;;;;;;9.63;6.53;;;21.30;68.40;;;;;;5075905;28;20029;-62
2023/06/24 01:03:41;;;;;;;9.15;6.30;;;21.30;68.50;;;;;;5076805;28;20521;-62
2023/06/24 01:06:10;;;;;;;9.68;6.53;;;21.30;68.60;;;;;;5054741;28;20028;-62
2023/06/24 01:08:36;;;;;;;9.63;6.28;;;21.30;68.60;;;;;;5074540;28;20044;-62
2023/06/24 01:11:01;;;;;;;10.15;6.45;;;21.40;68.70;;;;;;5074998;28;20028;-62
2023/06/24 01:13:27;;;;;;;9.68;6.85;;;21.30;68.70;;;;;;5076892;28;20024;-62
2023/06/24 01:15:54;;;;;;;9.15;6.20;;;21.40;68.70;;;;;;5056269;28;20035;-62
2023/06/24 01:18:32;;;;;;;9.43;6.60;;;21.40;68.70;;;;;;5071131;28;20033;-62
2023/06/24 01:21:18;;;;;;;10.00;6.75;;;21.30;68.80;;;;;;5058231;28;20025;-62
2023/06/24 01:24:11;;;;;;;9.60;6.68;;;21.30;68.80;;;;;;5062176;28;20089;-62
2023/06/24 01:26:58;;;;;;;10.18;6.63;;;21.30;68.80;;;;;;5073945;28;20096;-62
2023/06/24 01:30:02;;;;;;;9.90;6.40;;;21.30;68.90;;;;;;5075973;28;20032;-61
2023/06/24 01:32:39;;;;;;;8.35;5.90;;;21.20;68.90;;;;;;5043561;28;20037;-62
2023/06/24 01:35:15;;;;;;;10.27;6.93;;;21.20;69.20;;;;;;5017714;28;20025;-62
2023/06/24 01:37:54;;;;;;;9.70;7.07;;;21.20;69.30;;;;;;5048754;28;20055;-61
2023/06/24 01:40:30;;;;;;;11.75;6.72;;;21.10;69.30;;;;;;5074326;28;20021;-62
2023/06/24 01:43:03;;;;;;;11.43;7.60;;;21.10;69.40;;;;;;5058271;28;20156;-62
2023/06/24 01:45:33;;;;;;;11.98;7.35;;;21.10;69.50;;;;;;5074359;28;20028;-61
2023/06/24 01:48:08;;;;;;;10.05;7.00;;;21.10;69.60;;;;;;5054694;28;20151;-61
2023/06/24 01:50:37;;;;;;;9.93;7.15;;;21.00;69.70;;;;;;5056065;28;20071;-62
2023/06/24 01:53:07;;;;;;;12.10;7.68;;;21.10;69.90;;;;;;5057987;28;20035;-62
2023/06/24 01:55:34;;;;;;;9.13;7.05;;;21.00;69.80;;;;;;5055712;28;20099;-62
2023/06/24 01:58:02;;;;;;;10.93;7.50;;;21.00;69.90;;;;;;5074727;28;20040;-61
2023/06/24 02:00:29;;;;;;;10.80;7.85;;;21.00;69.90;;;;;;5065242;28;20024;-61
2023/06/24 02:02:55;;;;;;;11.23;7.55;;;21.00;70.00;;;;;;5074751;28;20039;-61
2023/06/24 02:05:22;;;;;;;10.30;7.43;;;21.00;70.00;;;;;;5044139;28;20025;-61
2023/06/24 02:07:51;;;;;;;11.38;7.50;;;21.00;70.20;;;;;;5056302;28;20021;-62
2023/06/24 02:10:18;;;;;;;11.10;8.00;;;21.00;70.40;;;;;;5056293;28;20036;-62
2023/06/24 02:12:46;;;;;;;10.70;8.13;;;21.00;70.50;;;;;;5074204;28;20017;-62
2023/06/24 02:15:12;;;;;;;11.93;8.45;;;21.10;70.70;;;;;;5074865;28;20158;-61
2023/06/24 02:17:39;;;;;;;13.85;9.27;;;21.10;70.80;;;;;;5074550;28;20448;-62
2023/06/24 02:20:08;;;;;;;11.85;8.27;;;21.10;70.90;;;;;;5057266;28;20111;-62
2023/06/24 02:22:37;;;;;;;11.48;8.60;;;21.10;70.90;;;;;;5055283;28;20032;-62
2023/06/24 02:25:05;;;;;;;13.63;8.77;;;21.10;71.00;;;;;;5052555;28;20036;-62
2023/06/24 02:27:33;;;;;;;11.07;8.70;;;21.10;71.10;;;;;;5070629;28;20107;-62
2023/06/24 02:30:00;;;;;;;11.70;8.70;;;21.10;71.10;;;;;;5057487;28;20365;-62
2023/06/24 02:32:26;;;;;;;11.38;8.68;;;21.10;71.20;;;;;;5055693;28;20032;-62
2023/06/24 02:34:52;;;;;;;12.18;8.50;;;21.00;71.30;;;;;;5057909;28;20017;-62
2023/06/24 02:37:18;;;;;;;13.90;9.23;;;21.00;71.30;;;;;;5074368;28;20032;-62
2023/06/24 02:39:44;;;;;;;12.48;8.82;;;21.00;71.40;;;;;;5057535;28;20024;-62
2023/06/24 02:42:11;;;;;;;13.00;8.68;;;21.00;72.10;;;;;;5055260;28;20429;-62
2023/06/24 02:44:38;;;;;;;12.90;9.20;;;21.00;71.60;;;;;;5073402;28;20376;-61
2023/06/24 02:47:07;;;;;;;12.13;9.35;;;21.00;71.60;;;;;;5047553;28;20441;-62
2023/06/24 02:49:35;;;;;;;12.57;9.18;;;20.90;71.60;;;;;;5057102;28;20055;-62
2023/06/24 02:52:01;;;;;;;13.35;9.00;;;20.90;71.70;;;;;;5054204;28;20082;-62
2023/06/24 02:54:27;;;;;;;12.43;9.77;;;20.90;71.70;;;;;;5041518;28;20346;-62
2023/06/24 02:57:16;;;;;;;11.82;8.68;;;20.90;71.80;;;;;;5051481;28;20032;-62
2023/06/24 03:00:09;;;;;;;13.23;9.32;;;20.90;71.80;;;;;;5074468;28;20135;-62
2023/06/24 03:02:51;;;;;;;12.63;9.02;;;20.80;71.80;;;;;;5052035;28;20029;-62
2023/06/24 03:05:18;;;;;;;11.70;9.18;;;20.80;71.90;;;;;;5055254;28;20543;-62
2023/06/24 03:07:45;;;;;;;13.05;9.23;;;20.80;72.00;;;;;;5056044;28;20028;-62
2023/06/24 03:10:11;;;;;;;11.70;9.13;;;20.80;72.00;;;;;;5055780;28;20398;-62
2023/06/24 03:12:37;;;;;;;12.65;9.13;;;20.80;72.10;;;;;;5067456;28;20119;-61
2023/06/24 03:15:04;;;;;;;13.43;10.10;;;20.70;72.10;;;;;;5047982;28;20361;-61
2023/06/24 03:17:31;;;;;;;12.02;9.05;;;20.70;72.20;;;;;;5064759;28;20031;-62
2023/06/24 03:19:57;;;;;;;12.95;9.18;;;20.70;72.30;;;;;;5050255;28;20086;-62
2023/06/24 03:22:24;;;;;;;13.38;9.35;;;20.70;72.40;;;;;;5066039;28;20335;-61
2023/06/24 03:24:52;;;;;;;11.77;9.00;;;20.70;72.50;;;;;;5036960;28;20033;-62
2023/06/24 03:27:18;;;;;;;12.23;9.35;;;20.60;72.40;;;;;;5049437;28;20036;-62
2023/06/24 03:29:45;;;;;;;11.88;8.55;;;20.60;72.50;;;;;;5049999;28;20028;-61
2023/06/24 03:32:12;;;;;;;12.77;9.65;;;20.60;72.50;;;;;;5049004;28;20330;-62
2023/06/24 03:34:38;;;;;;;12.50;8.88;;;20.60;72.50;;;;;;5051892;28;20029;-62
2023/06/24 03:37:04;;;;;;;12.40;8.88;;;20.60;72.60;;;;;;5050466;28;20032;-62
2023/06/24 03:39:31;;;;;;;13.65;9.73;;;20.60;72.60;;;;;;5051131;28;20027;-62
2023/06/24 03:41:56;;;;;;;11.93;9.68;;;20.50;72.60;;;;;;5048116;28;20120;-62
2023/06/24 03:44:22;;;;;;;13.57;10.15;;;20.50;72.60;;;;;;5052470;28;20032;-62
2023/06/24 03:46:48;;;;;;;11.57;8.52;;;20.50;72.70;;;;;;5063208;28;20035;-61
2023/06/24 03:49:14;;;;;;;12.00;9.13;;;20.50;72.70;;;;;;5045034;28;20136;-62
2023/06/24 03:51:41;;;;;;;12.02;9.13;;;20.50;72.80;;;;;;5053430;28;20056;-62
2023/06/24 03:54:08;;;;;;;11.93;8.82;;;20.50;72.80;;;;;;5034875;28;20411;-63
2023/06/24 03:56:34;;;;;;;12.13;9.05;;;20.50;72.80;;;;;;5058795;28;20103;-63
2023/06/24 03:58:59;;;;;;;12.90;8.88;;;20.50;72.80;;;;;;5053480;28;20039;-63
2023/06/24 04:01:25;;;;;;;13.93;8.82;;;20.40;72.80;;;;;;5038841;28;20079;-63
2023/06/24 04:03:51;;;;;;;11.90;9.07;;;20.50;72.90;;;;;;5072517;28;20040;-63
2023/06/24 04:06:17;;;;;;;11.38;8.52;;;20.40;72.90;;;;;;5072828;28;20489;-63
2023/06/24 04:08:48;;;;;;;13.73;8.82;;;20.50;73.00;;;;;;5072276;28;20036;-63
2023/06/24 04:11:14;;;;;;;11.15;9.18;;;20.50;73.10;;;;;;5053719;28;20029;-63
2023/06/24 04:13:40;;;;;;;12.05;9.60;;;20.50;73.00;;;;;;5071123;28;20067;-63
2023/06/24 04:16:06;;;;;;;11.00;8.32;;;20.50;73.10;;;;;;5054962;28;20021;-63
2023/06/24 04:18:33;;;;;;;11.35;8.98;;;20.50;73.00;;;;;;5055845;28;20082;-63
2023/06/24 04:20:59;;;;;;;12.60;9.15;;;20.50;73.00;;;;;;5055367;28;20025;-63
2023/06/24 04:23:25;;;;;;;12.98;8.35;;;20.50;73.00;;;;;;5054169;28;20029;-63
2023/06/24 04:25:50;;;;;;;11.00;8.77;;;20.50;73.00;;;;;;5036802;28;20028;-63
2023/06/24 04:28:16;;;;;;;10.95;9.20;;;20.60;73.00;;;;;;5050148;28;20487;-63
2023/06/24 04:30:42;;;;;;;12.32;8.43;;;20.60;73.10;;;;;;5054418;28;20024;-63
2023/06/24 04:33:09;;;;;;;11.40;8.90;;;20.50;73.10;;;;;;5054847;28;20334;-63
2023/06/24 04:35:34;;;;;;;11.10;7.88;;;20.60;73.20;;;;;;5058206;28;20111;-63
2023/06/24 04:38:00;;;;;;;10.77;8.45;;;20.60;73.30;;;;;;5077394;28;20023;-63
2023/06/24 04:40:26;;;;;;;11.80;8.25;;;20.60;73.30;;;;;;5059545;28;20021;-63
2023/06/24 04:42:52;;;;;;;12.30;8.20;;;20.60;73.20;;;;;;5076203;28;20017;-63
2023/06/24 04:45:17;;;;;;;12.07;9.00;;;20.60;73.20;;;;;;5075874;28;20071;-63
2023/06/24 04:47:44;;;;;;;11.50;8.65;;;20.70;73.30;;;;;;5059303;28;20060;-63
2023/06/24 04:50:10;;;;;;;12.93;8.35;;;20.70;73.30;;;;;;5075786;28;20098;-63
2023/06/24 04:52:36;;;;;;;11.50;8.65;;;20.70;73.30;;;;;;5075097;28;20021;-63
2023/06/24 04:55:02;;;;;;;11.93;8.50;;;20.80;73.30;;;;;;5075736;28;20107;-63
2023/06/24 04:57:30;;;;;;;12.23;8.68;;;20.80;73.30;;;;;;5058279;28;20029;-63
2023/06/24 04:59:57;;;;;;;10.52;8.32;;;20.80;73.20;;;;;;5075158;28;20111;-64
2023/06/24 05:02:23;;;;;;;11.02;8.63;;;20.90;73.30;;;;;;5073233;28;20029;-64
2023/06/24 05:04:49;;;;;;;11.82;9.00;;;20.90;73.30;;;;;;5074325;28;20047;-63
2023/06/24 05:07:15;;;;;;;13.35;9.57;;;21.00;73.30;;;;;;5057846;28;20063;-64
2023/06/24 05:09:42;;;;;;;13.57;9.73;;;21.00;73.10;;;;;;5073876;28;20029;-63
2023/06/24 05:12:08;;;;;;;13.43;10.15;;;21.10;73.00;;;;;;5076762;28;20491;-63
2023/06/24 05:14:35;;;;;;;14.50;10.15;;;21.20;72.70;;;;;;5058375;28;20077;-64
2023/06/24 05:17:01;;;;;;;14.18;10.50;;;21.20;72.50;;;;;;5059098;28;20021;-63
2023/06/24 05:19:26;;;;;;;17.17;9.98;;;21.30;72.40;;;;;;5054707;28;20211;-63
2023/06/24 05:21:52;;;;;;;13.35;9.38;;;21.40;72.30;;;;;;5074560;28;20158;-63
2023/06/24 05:24:18;;;;;;;14.05;10.05;;;21.50;72.10;;;;;;5057901;28;20025;-64
2023/06/24 05:26:46;;;;;;;13.45;10.05;;;21.60;71.90;;;;;;5076371;28;20055;-64
2023/06/24 05:29:12;;;;;;;12.93;8.95;;;21.70;71.20;;;;;;5075505;28;20040;-63
2023/06/24 05:31:40;;;;;;;13.02;8.85;;;21.80;70.60;;;;;;5076009;28;20368;-63
2023/06/24 05:34:05;;;;;;;13.25;8.98;;;21.80;69.80;;;;;;5056559;28;20020;-63
2023/06/24 05:36:31;;;;;;;11.50;8.88;;;21.90;69.20;;;;;;5072557;28;20043;-63
2023/06/24 05:38:57;;;;;;;13.10;8.80;;;22.00;68.70;;;;;;5074400;28;20085;-63
2023/06/24 05:41:23;;;;;;;13.70;8.30;;;22.10;68.20;;;;;;5075175;28;20372;-63
2023/06/24 05:43:48;;;;;;;13.57;8.70;;;22.20;67.70;;;;;;5073621;28;20429;-63
2023/06/24 05:46:14;;;;;;;11.43;7.47;;;22.30;67.10;;;;;;5073546;28;20310;-63
2023/06/24 05:48:42;;;;;;;10.80;7.00;;;22.40;66.40;;;;;;5075103;28;20469;-63
2023/06/24 05:51:08;;;;;;;10.32;6.85;;;22.40;65.70;;;;;;5074479;28;20044;-63
2023/06/24 05:53:34;;;;;;;10.15;6.28;;;22.50;65.20;;;;;;5056658;28;20404;-63
2023/06/24 05:56:00;;;;;;;9.75;6.20;;;22.60;64.90;;;;;;5055940;28;20033;-63
2023/06/24 05:58:25;;;;;;;10.00;5.75;;;22.60;64.30;;;;;;5075690;28;20077;-63
2023/06/24 06:00:52;;;;;;;10.50;5.97;;;22.70;63.80;;;;;;5074730;28;20116;-63
2023/06/24 06:03:17;;;;;;;9.40;5.35;;;22.80;63.60;;;;;;5058134;28;20453;-63
2023/06/24 06:05:43;;;;;;;10.70;5.65;;;22.90;63.40;;;;;;5070446;28;20040;-63
2023/06/24 06:08:09;;;;;;;9.20;5.60;;;22.90;62.80;;;;;;5073442;28;20104;-63
2023/06/24 06:10:34;;;;;;;9.50;5.68;;;23.00;62.40;;;;;;5073705;28;20039;-63
2023/06/24 06:13:00;;;;;;;8.88;5.07;;;23.00;62.10;;;;;;5073661;28;20047;-63
2023/06/24 06:15:26;;;;;;;9.57;5.50;;;23.10;62.00;;;;;;5055519;28;20437;-63
2023/06/24 06:17:52;;;;;;;9.20;4.97;;;23.20;61.90;;;;;;5075412;28;20030;-63
2023/06/24 06:20:18;;;;;;;10.40;6.07;;;23.20;61.40;;;;;;5074280;28;20098;-62
2023/06/24 06:22:43;;;;;;;10.23;5.57;;;23.30;61.20;;;;;;5074291;28;20112;-63
2023/06/24 06:25:09;;;;;;;8.55;5.32;;;23.40;60.70;;;;;;5073940;28;20428;-63
2023/06/24 06:27:35;;;;;;;10.65;6.07;;;23.50;60.50;;;;;;5055622;28;20043;-63
2023/06/24 06:30:00;;;;;;;9.50;5.35;;;23.60;60.20;;;;;;5055813;28;20035;-63
2023/06/24 06:32:26;;;;;;;9.98;5.55;;;23.60;60.00;;;;;;5073782;28;20097;-63
2023/06/24 06:34:52;;;;;;;9.85;5.80;;;23.70;59.70;;;;;;5074537;28;20032;-64
2023/06/24 06:37:18;;;;;;;9.20;5.55;;;23.80;59.40;;;;;;5073367;28;20064;-63
2023/06/24 06:39:43;;;;;;;10.85;6.00;;;23.90;59.20;;;;;;5071137;28;20089;-64
2023/06/24 06:42:09;;;;;;;8.88;5.45;;;24.00;58.90;;;;;;5055555;28;20029;-64
2023/06/24 06:44:35;;;;;;;9.50;5.82;;;24.10;58.50;;;;;;5073463;28;20029;-63
2023/06/24 06:47:00;;;;;;;12.18;5.40;;;24.20;58.20;;;;;;5074578;28;20028;-63
2023/06/24 06:49:26;;;;;;;9.77;5.63;;;24.30;58.20;;;;;;5072032;28;20090;-64
2023/06/24 06:51:54;;;;;;;9.57;5.53;;;24.50;58.00;;;;;;5072553;28;20234;-63
2023/06/24 06:54:20;;;;;;;9.90;6.05;;;24.60;57.70;;;;;;5070425;28;20048;-64
2023/06/24 06:56:46;;;;;;;9.38;5.75;;;24.70;57.30;;;;;;5074475;28;20082;-63
2023/06/24 06:59:11;;;;;;;10.95;6.35;;;24.80;56.90;;;;;;5073387;28;20364;-64
2023/06/24 07:01:37;;;;;;;10.50;5.65;;;24.90;56.70;;;;;;5073235;28;20024;-64
2023/06/24 07:04:03;;;;;;;8.48;5.45;;;25.00;56.60;;;;;;5069209;28;20422;-63
2023/06/24 07:06:29;;;;;;;10.10;6.55;;;25.10;56.40;;;;;;5054523;28;20060;-63
2023/06/24 07:08:55;;;;;;;10.27;6.20;;;25.30;56.40;;;;;;5071809;28;20024;-63
2023/06/24 07:11:20;;;;;;;11.27;6.70;;;25.40;56.00;;;;;;5069653;28;20035;-63
2023/06/24 07:13:46;;;;;;;9.48;6.05;;;25.50;55.90;;;;;;5072521;28;20012;-63
2023/06/24 07:16:12;;;;;;;9.30;5.68;;;25.60;55.50;;;;;;5075186;28;20326;-63
2023/06/24 07:18:37;;;;;;;12.20;6.18;;;25.70;55.10;;;;;;5074830;28;20025;-63
2023/06/24 07:21:03;;;;;;;11.25;6.28;;;25.80;54.90;;;;;;5038975;28;20107;-63
2023/06/24 07:23:29;;;;;;;9.50;5.05;;;26.00;54.70;;;;;;5074780;28;20059;-64
2023/06/24 07:25:55;;;;;;;9.88;5.85;;;26.00;54.70;;;;;;5074534;28;20032;-63
2023/06/24 07:28:20;;;;;;;9.60;5.25;;;26.10;54.10;;;;;;5075072;28;20027;-63
2023/06/24 07:30:46;;;;;;;9.50;5.20;;;26.30;53.80;;;;;;5073230;28;20402;-63
2023/06/24 07:33:12;;;;;;;12.45;4.38;;;26.40;53.40;;;;;;5056061;28;20067;-63
2023/06/24 07:35:37;;;;;;;8.57;4.22;;;26.50;52.90;;;;;;5074238;28;20060;-64
2023/06/24 07:38:03;;;;;;;9.32;4.90;;;26.60;52.50;;;;;;5073658;28;20025;-63
2023/06/24 07:40:29;;;;;;;8.68;4.88;;;26.80;52.00;;;;;;5037386;28;20033;-63
2023/06/24 07:42:55;;;;;;;8.27;3.72;;;27.00;51.30;;;;;;5071953;28;20472;-63
2023/06/24 07:45:21;;;;;;;7.93;4.35;;;27.10;51.00;;;;;;5073601;28;20035;-63
2023/06/24 07:47:47;;;;;;;8.55;4.43;;;27.20;50.70;;;;;;5071975;28;20032;-63
2023/06/24 07:50:12;;;;;;;7.97;3.80;;;27.40;50.30;;;;;;5070894;28;20029;-63
2023/06/24 07:52:38;;;;;;;7.50;3.90;;;27.40;49.70;;;;;;5072952;28;20032;-64
2023/06/24 07:55:04;;;;;;;8.15;3.38;;;27.60;49.40;;;;;;5071038;28;20072;-64
2023/06/24 07:57:30;;;;;;;7.70;3.45;;;27.60;49.10;;;;;;5072416;28;20070;-64
2023/06/24 07:59:56;;;;;;;8.15;4.68;;;27.60;48.80;;;;;;5074522;28;20388;-64
2023/06/24 08:02:23;;;;;;;7.70;3.53;;;27.60;48.70;;;;;;5074024;28;20034;-64
2023/06/24 08:04:50;;;;;;;6.97;3.42;;;27.60;48.60;;;;;;5073056;28;20024;-64
2023/06/24 08:07:16;;;;;;;6.97;3.00;;;27.70;48.50;;;;;;5074014;28;20028;-64
2023/06/24 08:09:42;;;;;;;7.10;3.10;;;27.80;48.00;;;;;;5073912;28;20120;-64
2023/06/24 08:12:08;;;;;;;6.32;2.90;;;27.80;47.70;;;;;;5074250;28;20063;-65
2023/06/24 08:14:35;;;;;;;5.03;2.45;;;28.00;47.50;;;;;;5072772;28;20452;-64
2023/06/24 08:17:00;;;;;;;6.10;2.85;;;28.10;47.00;;;;;;5056022;28;20414;-64
2023/06/24 08:19:26;;;;;;;5.75;2.90;;;28.20;46.70;;;;;;5074522;28;20035;-64
2023/06/24 08:21:53;;;;;;;5.60;2.80;;;28.20;46.30;;;;;;5073902;28;20028;-64
2023/06/24 08:24:19;;;;;;;6.80;2.92;;;28.20;46.10;;;;;;5073556;28;20029;-64
2023/06/24 08:26:44;;;;;;;5.82;3.00;;;28.20;46.30;;;;;;5073469;28;20370;-64
2023/06/24 08:29:10;;;;;;;5.40;2.80;;;28.20;46.70;;;;;;5073883;28;20029;-64
2023/06/24 08:31:36;;;;;;;6.35;2.55;;;28.30;46.50;;;;;;5074027;28;20035;-65
2023/06/24 08:34:02;;;;;;;5.63;2.83;;;28.40;46.40;;;;;;5056161;28;20035;-64
2023/06/24 08:36:29;;;;;;;6.40;3.03;;;28.50;46.40;;;;;;5072418;28;20452;-64
2023/06/24 08:38:55;;;;;;;7.18;3.13;;;28.50;46.20;;;;;;5074047;28;20050;-64
2023/06/24 08:41:22;;;;;;;5.75;2.30;;;28.50;45.50;;;;;;5073864;28;20039;-65
2023/06/24 08:43:47;;;;;;;6.70;2.88;;;28.70;45.30;;;;;;5073823;28;20040;-65
2023/06/24 08:46:16;;;;;;;5.82;2.60;;;28.90;45.00;;;;;;5073441;28;20059;-65
2023/06/24 08:48:44;;;;;;;5.95;2.58;;;29.00;44.30;;;;;;5071571;28;20052;-64
2023/06/24 08:51:13;;;;;;;5.90;2.70;;;29.10;44.00;;;;;;5073698;28;20040;-64
2023/06/24 08:53:42;;;;;;;7.93;3.00;;;29.10;44.00;;;;;;5073909;28;20020;-64
2023/06/24 08:56:08;;;;;;;6.32;2.78;;;29.10;43.90;;;;;;5056079;28;20511;-64
2023/06/24 08:58:34;;;;;;;6.80;2.67;;;29.10;43.90;;;;;;5072163;28;20020;-64
2023/06/24 09:01:00;;;;;;;6.10;2.85;;;29.20;43.60;;;;;;5055664;28;20449;-64
2023/06/24 09:03:26;;;;;;;6.35;2.78;;;29.10;43.50;;;;;;5073357;28;20028;-65
2023/06/24 09:05:52;;;;;;;6.30;2.63;;;29.00;43.40;;;;;;5055750;28;20453;-64
2023/06/24 09:08:18;;;;;;;7.05;3.30;;;29.00;43.30;;;;;;5072657;28;20373;-64
2023/06/24 09:10:43;;;;;;;7.38;3.22;;;29.10;43.10;;;;;;5054525;28;20036;-64
2023/06/24 09:13:09;;;;;;;6.10;2.80;;;29.20;43.10;;;;;;5055486;28;20032;-64
2023/06/24 09:15:36;;;;;;;6.50;3.10;;;29.20;43.20;;;;;;5056013;28;20025;-64
2023/06/24 09:18:03;;;;;;;7.78;3.28;;;29.20;43.10;;;;;;5056103;28;20100;-64
2023/06/24 09:20:31;;;;;;;7.10;3.30;;;29.10;43.00;;;;;;5049363;28;20036;-64
2023/06/24 09:23:01;;;;;;;6.55;3.20;;;29.10;43.10;;;;;;5077477;28;20107;-65
2023/06/24 09:25:27;;;;;;;6.93;3.58;;;29.10;43.30;;;;;;5058951;28;20039;-64
2023/06/24 09:27:55;;;;;;;7.10;3.45;;;29.20;43.40;;;;;;5045985;28;20052;-65
2023/06/24 09:30:21;;;;;;;7.18;3.55;;;29.30;43.40;;;;;;5057898;28;20028;-65
2023/06/24 09:32:48;;;;;;;6.43;3.28;;;29.30;43.60;;;;;;5076389;28;20379;-64
2023/06/24 09:35:19;;;;;;;5.55;2.80;;;29.40;43.80;;;;;;5077041;28;20039;-64
2023/06/24 09:37:54;;;;;;;;;;;29.30;43.70;;;;;;5077502;28;20037;-64
2023/06/24 09:40:23;;;;;;;5.63;2.45;;;29.20;43.90;;;;;;5075332;28;19909;-64
2023/06/24 09:43:00;;;;;;;6.07;3.08;;;29.20;43.80;;;;;;5059118;28;20485;-65
2023/06/24 09:45:30;;;;;;;6.65;3.28;;;29.10;43.70;;;;;;5076976;28;20040;-64
2023/06/24 09:47:59;;;;;;;7.20;3.70;;;29.20;43.30;;;;;;5076408;28;20043;-64
2023/06/24 09:50:25;;;;;;;6.70;3.43;;;29.20;43.10;;;;;;5076960;28;20082;-65
2023/06/24 09:52:53;;;;;;;6.90;3.35;;;29.30;43.30;;;;;;5057328;28;20028;-65
2023/06/24 09:55:19;;;;;;;7.25;3.92;;;29.30;43.30;;;;;;5076411;28;20033;-65
2023/06/24 09:57:46;;;;;;;8.55;3.88;;;29.40;43.30;;;;;;5077061;28;20147;-64
2023/06/24 10:00:19;;;;;;;6.43;3.25;;;29.40;43.60;;;;;;5076722;28;20036;-64
2023/06/24 10:02:46;;;;;;;6.47;3.67;;;29.40;43.50;;;;;;5074456;28;20100;-65
2023/06/24 10:05:13;;;;;;;6.55;3.15;;;29.50;43.30;;;;;;5071180;28;20491;-65
2023/06/24 10:07:40;;;;;;;5.65;2.90;;;29.60;42.90;;;;;;5071449;28;20183;-65
2023/06/24 10:10:07;;;;;;;6.32;3.40;;;29.70;42.50;;;;;;5059015;28;20153;-65
2023/06/24 10:12:34;;;;;;;5.68;2.78;;;29.90;42.10;;;;;;5063134;28;20035;-64
2023/06/24 10:15:01;;;;;;;7.60;3.05;;;30.10;41.80;;;;;;5073973;28;20021;-65
2023/06/24 10:17:27;;;;;;;7.60;3.67;;;30.20;41.60;;;;;;5074792;28;20067;-64
2023/06/24 10:19:56;;;;;;;6.63;2.90;;;30.20;40.90;;;;;;5075841;28;20028;-64
2023/06/24 10:22:28;;;;;;;7.90;3.35;;;30.20;41.20;;;;;;5074458;28;20108;-64
2023/06/24 10:24:54;;;;;;;6.05;3.10;;;30.30;41.30;;;;;;5067914;28;20028;-64
2023/06/24 10:27:23;;;;;;;6.40;3.33;;;30.40;41.10;;;;;;5074645;28;20017;-64
2023/06/24 10:29:50;;;;;;;7.05;3.50;;;30.60;41.10;;;;;;5075588;28;20064;-64
2023/06/24 10:32:18;;;;;;;6.60;3.28;;;30.60;40.70;;;;;;5073851;28;20032;-64
2023/06/24 10:34:45;;;;;;;7.82;3.50;;;30.70;40.90;;;;;;5074426;28;20024;-64
2023/06/24 10:37:25;;;;;;;6.90;3.10;;;30.80;40.70;;;;;;5055807;28;20078;-65
2023/06/24 10:40:01;;;;;;;6.50;3.13;;;30.80;40.30;;;;;;5066732;28;20036;-64
2023/06/24 10:42:45;;;;;;;7.75;3.35;;;30.80;40.30;;;;;;5051525;28;20445;-64
2023/06/24 10:45:12;;;;;;;7.00;3.35;;;30.80;39.50;;;;;;5075537;28;20040;-65
2023/06/24 10:47:39;;;;;;;6.43;3.33;;;30.70;39.90;;;;;;5056868;28;20460;-64
2023/06/24 10:50:06;;;;;;;7.70;3.90;;;30.70;40.00;;;;;;5073643;28;20471;-64
2023/06/24 10:52:32;;;;;;;6.85;3.60;;;30.70;40.20;;;;;;5073804;28;20031;-64
2023/06/24 10:54:58;;;;;;;7.40;3.65;;;30.70;40.40;;;;;;5075354;28;20505;-65
2023/06/24 10:57:26;;;;;;;8.00;4.00;;;30.70;40.40;;;;;;5074557;28;20020;-64
2023/06/24 10:59:54;;;;;;;6.50;3.38;;;30.80;40.50;;;;;;5070906;28;20677;-64
2023/06/24 11:02:22;;;;;;;7.20;3.85;;;30.80;40.40;;;;;;5066231;28;20035;-65
2023/06/24 11:04:57;;;;;;;7.07;3.60;;;30.80;40.40;;;;;;5049303;28;20040;-64
2023/06/24 11:07:25;;;;;;;7.97;4.07;;;30.80;40.40;;;;;;5055172;28;20060;-64
2023/06/24 11:09:55;;;;;;;7.13;3.53;;;30.90;40.40;;;;;;5075193;28;20051;-64
2023/06/24 11:12:26;;;;;;;7.22;3.85;;;30.90;40.40;;;;;;5039377;28;20376;-64
2023/06/24 11:14:59;;;;;;;7.65;3.47;;;30.90;40.60;;;;;;5041415;28;20028;-65
2023/06/24 11:17:25;;;;;;;8.73;3.95;;;31.00;40.60;;;;;;5073147;28;20387;-64
2023/06/24 11:19:55;;;;;;;7.13;4.00;;;31.00;40.60;;;;;;5054209;28;20036;-65
2023/06/24 11:22:22;;;;;;;7.68;4.20;;;31.00;40.30;;;;;;5068338;28;20040;-64
2023/06/24 11:24:48;;;;;;;6.85;3.85;;;31.00;40.40;;;;;;5072984;28;20032;-65
2023/06/24 11:27:14;;;;;;;9.15;4.57;;;31.00;40.50;;;;;;5075036;28;20036;-64
2023/06/24 11:29:39;;;;;;;7.40;3.67;;;31.00;40.00;;;;;;5055510;28;20544;-64
2023/06/24 11:32:09;;;;;;;8.50;3.75;;;31.00;40.30;;;;;;5073487;28;20036;-65
2023/06/24 11:34:37;;;;;;;8.10;4.05;;;31.00;40.60;;;;;;5071196;28;20161;-64
2023/06/24 11:37:14;;;;;;;6.72;3.70;;;31.00;40.60;;;;;;5074495;28;20473;-65
2023/06/24 11:39:40;;;;;;;6.18;3.35;;;31.10;40.80;;;;;;5039698;28;20032;-64
2023/06/24 11:42:09;;;;;;;9.10;4.10;;;31.10;40.70;;;;;;5056204;28;20090;-65
2023/06/24 11:44:40;;;;;;;7.53;3.80;;;31.10;40.70;;;;;;5054689;28;20111;-65
2023/06/24 11:47:07;;;;;;;6.75;3.47;;;31.20;40.80;;;;;;5074817;28;20107;-64
2023/06/24 11:49:48;;;;;;;8.25;4.10;;;31.20;41.10;;;;;;5073167;28;20346;-65
2023/06/24 11:52:14;;;;;;;9.00;4.05;;;31.20;41.00;;;;;;5074503;28;20044;-65
2023/06/24 11:54:43;;;;;;;7.97;4.15;;;31.10;40.90;;;;;;5071002;28;20060;-65
2023/06/24 11:57:09;;;;;;;7.40;3.50;;;31.00;41.00;;;;;;5056758;28;20347;-65
2023/06/24 11:59:35;;;;;;;6.75;3.25;;;31.00;41.00;;;;;;5055205;28;20488;-65
2023/06/24 12:02:03;;;;;;;7.55;3.30;;;31.00;41.20;;;;;;5039840;28;20115;-65
2023/06/24 12:04:33;;;;;;;6.40;3.38;;;30.90;41.10;;;;;;5073658;28;20457;-65
2023/06/24 12:06:59;;;;;;;6.07;3.03;;;30.90;41.20;;;;;;5072711;28;20123;-65
2023/06/24 12:09:25;;;;;;;6.93;3.45;;;30.80;41.40;;;;;;5054480;28;20024;-65
2023/06/24 12:11:52;;;;;;;7.63;3.63;;;30.80;41.40;;;;;;5073032;28;20398;-65
2023/06/24 12:14:18;;;;;;;6.35;3.42;;;30.70;41.30;;;;;;5038157;28;20438;-65
2023/06/24 12:16:44;;;;;;;6.68;3.45;;;30.60;41.40;;;;;;5072924;28;20108;-65
2023/06/24 12:19:11;;;;;;;6.75;3.15;;;30.50;41.30;;;;;;5073423;28;20425;-65
2023/06/24 12:21:37;;;;;;;7.20;3.45;;;30.50;41.20;;;;;;5073549;28;20119;-65
2023/06/24 12:24:04;;;;;;;8.27;3.45;;;30.40;41.80;;;;;;5055104;28;20098;-64
2023/06/24 12:26:33;;;;;;;7.53;4.22;;;30.40;41.80;;;;;;5066366;28;20441;-64
2023/06/24 12:28:58;;;;;;;7.68;4.15;;;30.30;41.50;;;;;;5054240;28;20052;-64
2023/06/24 12:31:24;;;;;;;8.00;3.83;;;30.20;41.70;;;;;;5072673;28;20448;-64
2023/06/24 12:33:51;;;;;;;8.07;3.80;;;30.10;42.70;;;;;;5073443;28;20035;-64
2023/06/24 12:36:18;;;;;;;9.48;3.58;;;30.10;42.00;;;;;;5054785;28;20028;-64
2023/06/24 12:38:44;;;;;;;6.85;3.63;;;30.00;42.00;;;;;;5067390;28;20081;-64
2023/06/24 12:41:10;;;;;;;7.20;3.50;;;30.00;41.90;;;;;;5071160;28;20028;-67
2023/06/24 12:43:35;;;;;;;6.45;3.03;;;30.00;42.30;;;;;;5054106;28;20273;-64
2023/06/24 12:46:01;;;;;;;7.03;3.50;;;29.90;42.60;;;;;;5052785;28;20033;-64